createdAt,value
2023-04-02T00:00:48.596Z,807.56
2023-04-02T00:01:48.675Z,807.56
2023-04-02T00:02:48.660Z,807.60
2023-04-02T00:03:48.659Z,807.61
2023-04-02T00:04:48.624Z,807.60
2023-04-02T00:05:48.624Z,807.62
2023-04-02T00:06:48.638Z,807.63
2023-04-02T00:07:48.660Z,807.64
2023-04-02T00:08:48.647Z,807.65
2023-04-02T00:09:48.646Z,807.64
2023-04-02T00:10:48.658Z,807.57
2023-04-02T00:11:48.688Z,807.60
2023-04-02T00:12:48.665Z,807.62
2023-04-02T00:13:48.671Z,807.64
2023-04-02T00:14:48.744Z,807.61
2023-04-02T00:15:48.683Z,807.64
2023-04-02T00:16:48.749Z,807.64
2023-04-02T00:17:48.714Z,807.59
2023-04-02T00:18:48.698Z,807.61
2023-04-02T00:19:48.701Z,807.65
2023-04-02T00:20:48.721Z,807.60
2023-04-02T00:21:48.711Z,807.63
2023-04-02T00:22:48.722Z,807.65
2023-04-02T00:23:48.752Z,807.67
2023-04-02T00:24:48.732Z,807.66
2023-04-02T00:25:48.735Z,807.67
2023-04-02T00:26:48.752Z,807.68
2023-04-02T00:27:48.759Z,807.69
2023-04-02T00:28:48.757Z,807.69
2023-04-02T00:29:48.757Z,807.68
2023-04-02T00:30:48.762Z,807.73
2023-04-02T00:31:48.799Z,807.69
2023-04-02T00:32:48.814Z,807.67
2023-04-02T00:33:48.779Z,807.71
2023-04-02T00:34:48.788Z,807.72
2023-04-02T00:35:48.823Z,807.67
2023-04-02T00:36:48.795Z,807.70
2023-04-02T00:37:48.821Z,807.72
2023-04-02T00:38:48.979Z,807.70
2023-04-02T00:39:48.828Z,807.70
2023-04-02T00:40:48.819Z,807.72
2023-04-02T00:41:48.819Z,807.67
2023-04-02T00:42:48.829Z,807.66
2023-04-02T00:43:48.835Z,807.68
2023-04-02T00:44:48.851Z,807.67
2023-04-02T00:45:48.904Z,807.67
2023-04-02T00:46:48.850Z,807.66
2023-04-02T00:47:48.899Z,807.68
2023-04-02T00:48:48.875Z,807.66
2023-04-02T00:49:48.867Z,807.62
2023-04-02T00:50:48.875Z,807.65
2023-04-02T00:51:48.878Z,807.64
2023-04-02T00:52:48.881Z,807.64
2023-04-02T00:53:48.894Z,807.66
2023-04-02T00:54:48.893Z,807.66
2023-04-02T00:55:48.915Z,807.66
2023-04-02T00:56:48.923Z,807.64
2023-04-02T00:57:48.920Z,807.66
2023-04-02T00:58:48.913Z,807.69
2023-04-02T00:59:48.946Z,807.71
2023-04-02T01:00:48.931Z,807.72
2023-04-02T01:01:49.056Z,807.70
2023-04-02T01:02:48.995Z,807.73
2023-04-02T01:03:48.948Z,807.70
2023-04-02T01:04:48.947Z,807.73
2023-04-02T01:05:48.949Z,807.72
2023-04-02T01:06:48.956Z,807.70
2023-04-02T01:07:48.957Z,807.66
2023-04-02T01:08:48.964Z,807.72
2023-04-02T01:09:48.973Z,807.66
2023-04-02T01:10:48.976Z,807.62
2023-04-02T01:11:49.004Z,807.64
2023-04-02T01:12:49.007Z,807.63
2023-04-02T01:13:49.007Z,807.66
2023-04-02T01:14:49.000Z,807.67
2023-04-02T01:15:49.068Z,807.63
2023-04-02T01:16:49.006Z,807.61
2023-04-02T01:17:49.206Z,807.61
2023-04-02T01:18:49.019Z,807.59
2023-04-02T01:19:49.027Z,807.63
2023-04-02T01:20:49.029Z,807.57
2023-04-02T01:21:49.034Z,807.58
2023-04-02T01:22:49.060Z,807.55
2023-04-02T01:23:49.042Z,807.54
2023-04-02T01:24:49.047Z,807.50
2023-04-02T01:25:49.060Z,807.55
2023-04-02T01:26:49.069Z,807.53
2023-04-02T01:27:49.080Z,807.52
2023-04-02T01:28:49.069Z,807.57
2023-04-02T01:29:49.081Z,807.52
2023-04-02T01:30:49.079Z,807.53
2023-04-02T01:31:49.158Z,807.54
2023-04-02T01:32:49.170Z,807.54
2023-04-02T01:33:49.092Z,807.51
2023-04-02T01:34:49.108Z,807.54
2023-04-02T01:35:49.134Z,807.50
2023-04-02T01:36:49.119Z,807.51
2023-04-02T01:37:49.110Z,807.52
2023-04-02T01:38:49.114Z,807.48
2023-04-02T01:39:49.124Z,807.51
2023-04-02T01:40:49.132Z,807.56
2023-04-02T01:41:49.174Z,807.54
2023-04-02T01:42:49.158Z,807.55
2023-04-02T01:43:49.156Z,807.53
2023-04-02T01:44:49.152Z,807.53
2023-04-02T01:45:49.147Z,807.52
2023-04-02T01:46:49.261Z,807.55
2023-04-02T01:47:49.201Z,807.54
2023-04-02T01:48:49.163Z,807.57
2023-04-02T01:49:49.171Z,807.54
2023-04-02T01:50:49.172Z,807.54
2023-04-02T01:51:49.174Z,807.55
2023-04-02T01:52:49.180Z,807.54
2023-04-02T01:53:49.183Z,807.55
2023-04-02T01:54:49.215Z,807.54
2023-04-02T01:55:49.192Z,807.54
2023-04-02T01:56:49.248Z,807.53
2023-04-02T01:57:49.199Z,807.56
2023-04-02T01:58:49.206Z,807.59
2023-04-02T01:59:49.224Z,807.61
2023-04-02T02:00:49.245Z,807.58
2023-04-02T02:01:49.289Z,807.58
2023-04-02T02:02:49.268Z,807.58
2023-04-02T02:03:49.220Z,807.59
2023-04-02T02:04:49.226Z,807.59
2023-04-02T02:05:49.247Z,807.57
2023-04-02T02:06:49.237Z,807.56
2023-04-02T02:07:49.237Z,807.59
2023-04-02T02:08:49.240Z,807.58
2023-04-02T02:09:49.246Z,807.60
2023-04-02T02:10:49.257Z,807.60
2023-04-02T02:11:49.253Z,807.58
2023-04-02T02:12:49.264Z,807.60
2023-04-02T02:13:49.269Z,807.58
2023-04-02T02:14:49.274Z,807.58
2023-04-02T02:15:49.298Z,807.60
2023-04-02T02:16:49.354Z,807.61
2023-04-02T02:17:49.292Z,807.64
2023-04-02T02:18:49.290Z,807.63
2023-04-02T02:19:49.291Z,807.63
2023-04-02T02:20:49.297Z,807.64
2023-04-02T02:21:49.302Z,807.65
2023-04-02T02:22:49.311Z,807.63
2023-04-02T02:23:49.304Z,807.66
2023-04-02T02:24:49.317Z,807.66
2023-04-02T02:25:49.316Z,807.66
2023-04-02T02:26:49.321Z,807.67
2023-04-02T02:27:49.322Z,807.64
2023-04-02T02:28:49.358Z,807.66
2023-04-02T02:29:49.333Z,807.67
2023-04-02T02:30:49.340Z,807.63
2023-04-02T02:31:49.382Z,807.66
2023-04-02T02:32:49.359Z,807.69
2023-04-02T02:33:49.358Z,807.71
2023-04-02T02:34:49.375Z,807.70
2023-04-02T02:35:49.373Z,807.76
2023-04-02T02:36:49.368Z,807.77
2023-04-02T02:37:49.371Z,807.78
2023-04-02T02:38:49.411Z,807.78
2023-04-02T02:39:49.389Z,807.82
2023-04-02T02:40:49.382Z,807.82
2023-04-02T02:41:49.385Z,807.83
2023-04-02T02:42:49.395Z,807.83
2023-04-02T02:43:49.389Z,807.85
2023-04-02T02:44:49.410Z,807.86
2023-04-02T02:45:49.421Z,807.90
2023-04-02T02:46:49.409Z,807.88
2023-04-02T02:47:49.493Z,807.86
2023-04-02T02:48:49.413Z,807.88
2023-04-02T02:49:49.416Z,807.89
2023-04-02T02:50:49.427Z,807.88
2023-04-02T02:51:49.424Z,807.90
2023-04-02T02:52:49.477Z,807.89
2023-04-02T02:53:49.443Z,807.91
2023-04-02T02:54:49.439Z,807.90
2023-04-02T02:55:49.438Z,807.94
2023-04-02T02:56:49.471Z,807.96
2023-04-02T02:57:49.451Z,807.98
2023-04-02T02:58:49.456Z,807.98
2023-04-02T02:59:49.458Z,807.96
2023-04-02T03:00:49.462Z,808.01
2023-04-02T03:01:49.579Z,808.00
2023-04-02T03:02:49.604Z,807.98
2023-04-02T03:03:49.679Z,808.01
2023-04-02T03:04:49.501Z,808.02
2023-04-02T03:05:49.486Z,808.00
2023-04-02T03:06:49.489Z,808.05
2023-04-02T03:07:49.493Z,808.02
2023-04-02T03:08:49.495Z,808.00
2023-04-02T03:09:49.501Z,808.07
2023-04-02T03:10:49.513Z,808.03
2023-04-02T03:11:49.518Z,808.03
2023-04-02T03:12:49.514Z,808.05
2023-04-02T03:13:49.516Z,808.04
2023-04-02T03:14:49.525Z,808.05
2023-04-02T03:15:49.541Z,808.03
2023-04-02T03:16:49.529Z,808.05
2023-04-02T03:17:49.574Z,808.08
2023-04-02T03:18:49.540Z,808.05
2023-04-02T03:19:49.570Z,808.06
2023-04-02T03:20:49.565Z,808.05
2023-04-02T03:21:49.561Z,808.09
2023-04-02T03:22:49.570Z,808.06
2023-04-02T03:23:49.570Z,808.07
2023-04-02T03:24:49.573Z,808.12
2023-04-02T03:25:49.573Z,808.09
2023-04-02T03:26:49.588Z,808.12
2023-04-02T03:27:49.588Z,808.11
2023-04-02T03:28:49.589Z,808.11
2023-04-02T03:29:49.603Z,808.12
2023-04-02T03:30:49.605Z,808.11
2023-04-02T03:31:49.617Z,808.10
2023-04-02T03:32:49.659Z,808.14
2023-04-02T03:33:49.612Z,808.18
2023-04-02T03:34:49.624Z,808.13
2023-04-02T03:35:49.654Z,808.14
2023-04-02T03:36:49.623Z,808.16
2023-04-02T03:37:49.643Z,808.16
2023-04-02T03:38:49.636Z,808.16
2023-04-02T03:39:49.634Z,808.16
2023-04-02T03:40:49.643Z,808.18
2023-04-02T03:41:49.646Z,808.16
2023-04-02T03:42:49.692Z,808.14
2023-04-02T03:43:49.664Z,808.20
2023-04-02T03:44:49.665Z,808.18
2023-04-02T03:45:49.662Z,808.17
2023-04-02T03:46:49.739Z,808.18
2023-04-02T03:47:49.745Z,808.19
2023-04-02T03:48:49.688Z,808.22
2023-04-02T03:49:49.683Z,808.23
2023-04-02T03:50:49.691Z,808.22
2023-04-02T03:51:49.717Z,808.25
2023-04-02T03:52:49.697Z,808.24
2023-04-02T03:53:49.704Z,808.31
2023-04-02T03:54:54.037Z,808.28
2023-04-02T03:55:49.711Z,808.28
2023-04-02T03:56:49.766Z,808.27
2023-04-02T03:57:49.724Z,808.30
2023-04-02T03:58:49.728Z,808.28
2023-04-02T03:59:49.725Z,808.29
2023-04-02T04:00:49.733Z,808.32
2023-04-02T04:01:49.758Z,808.34
2023-04-02T04:02:49.768Z,808.34
2023-04-02T04:03:49.799Z,808.34
2023-04-02T04:04:49.755Z,808.35
2023-04-02T04:05:49.762Z,808.36
2023-04-02T04:06:49.760Z,808.34
2023-04-02T04:07:49.780Z,808.34
2023-04-02T04:08:49.769Z,808.37
2023-04-02T04:09:49.770Z,808.38
2023-04-02T04:10:49.814Z,808.36
2023-04-02T04:11:49.777Z,808.35
2023-04-02T04:12:49.785Z,808.35
2023-04-02T04:13:49.810Z,808.39
2023-04-02T04:14:49.795Z,808.40
2023-04-02T04:15:49.796Z,808.40
2023-04-02T04:16:49.881Z,808.43
2023-04-02T04:17:49.853Z,808.42
2023-04-02T04:18:49.814Z,808.37
2023-04-02T04:19:49.822Z,808.35
2023-04-02T04:20:49.816Z,808.37
2023-04-02T04:21:49.827Z,808.37
2023-04-02T04:22:49.866Z,808.39
2023-04-02T04:23:49.859Z,808.37
2023-04-02T04:24:49.834Z,808.40
2023-04-02T04:25:49.850Z,808.38
2023-04-02T04:26:49.852Z,808.40
2023-04-02T04:27:49.859Z,808.41
2023-04-02T04:28:49.872Z,808.41
2023-04-02T04:29:49.871Z,808.38
2023-04-02T04:30:49.880Z,808.42
2023-04-02T04:31:49.967Z,808.44
2023-04-02T04:32:49.927Z,808.42
2023-04-02T04:33:49.880Z,808.45
2023-04-02T04:34:49.882Z,808.39
2023-04-02T04:35:49.917Z,808.42
2023-04-02T04:36:49.889Z,808.39
2023-04-02T04:37:49.901Z,808.41
2023-04-02T04:38:49.907Z,808.47
2023-04-02T04:39:49.930Z,808.46
2023-04-02T04:40:49.908Z,808.44
2023-04-02T04:41:49.917Z,808.49
2023-04-02T04:42:49.925Z,808.47
2023-04-02T04:43:49.931Z,808.51
2023-04-02T04:44:49.928Z,808.54
2023-04-02T04:45:49.967Z,808.52
2023-04-02T04:46:49.950Z,808.49
2023-04-02T04:47:50.010Z,808.50
2023-04-02T04:48:49.943Z,808.54
2023-04-02T04:49:49.959Z,808.53
2023-04-02T04:50:49.954Z,808.54
2023-04-02T04:51:49.961Z,808.54
2023-04-02T04:52:49.980Z,808.54
2023-04-02T04:53:49.972Z,808.57
2023-04-02T04:54:49.968Z,808.52
2023-04-02T04:55:50.003Z,808.55
2023-04-02T04:56:50.032Z,808.55
2023-04-02T04:57:49.993Z,808.55
2023-04-02T04:58:49.988Z,808.54
2023-04-02T04:59:49.996Z,808.53
2023-04-02T05:00:50.222Z,808.56
2023-04-02T05:01:50.053Z,808.55
2023-04-02T05:02:50.096Z,808.51
2023-04-02T05:03:50.009Z,808.52
2023-04-02T05:04:50.116Z,808.55
2023-04-02T05:05:50.026Z,808.51
2023-04-02T05:06:50.021Z,808.53
2023-04-02T05:07:50.040Z,808.53
2023-04-02T05:08:50.032Z,808.50
2023-04-02T05:09:50.036Z,808.50
2023-04-02T05:10:50.037Z,808.51
2023-04-02T05:11:50.066Z,808.48
2023-04-02T05:12:50.047Z,808.50
2023-04-02T05:13:50.059Z,808.50
2023-04-02T05:14:50.067Z,808.51
2023-04-02T05:15:50.096Z,808.49
2023-04-02T05:16:50.062Z,808.52
2023-04-02T05:17:50.084Z,808.56
2023-04-02T05:18:50.073Z,808.53
2023-04-02T05:19:50.083Z,808.56
2023-04-02T05:20:50.085Z,808.59
2023-04-02T05:21:50.091Z,808.54
2023-04-02T05:22:50.085Z,808.56
2023-04-02T05:23:50.105Z,808.56
2023-04-02T05:24:50.113Z,808.59
2023-04-02T05:25:50.107Z,808.55
2023-04-02T05:26:50.106Z,808.57
2023-04-02T05:27:50.132Z,808.56
2023-04-02T05:28:50.108Z,808.57
2023-04-02T05:29:50.117Z,808.56
2023-04-02T05:30:50.118Z,808.56
2023-04-02T05:31:50.200Z,808.59
2023-04-02T05:32:50.146Z,808.55
2023-04-02T05:33:50.130Z,808.59
2023-04-02T05:34:50.159Z,808.57
2023-04-02T05:35:50.177Z,808.58
2023-04-02T05:36:50.156Z,808.62
2023-04-02T05:37:50.155Z,808.64
2023-04-02T05:38:50.153Z,808.61
2023-04-02T05:39:50.158Z,808.63
2023-04-02T05:40:50.158Z,808.64
2023-04-02T05:41:50.166Z,808.64
2023-04-02T05:42:50.171Z,808.66
2023-04-02T05:43:50.195Z,808.65
2023-04-02T05:44:50.178Z,808.64
2023-04-02T05:45:50.187Z,808.65
2023-04-02T05:46:50.274Z,808.66
2023-04-02T05:47:50.229Z,808.64
2023-04-02T05:48:50.189Z,808.67
2023-04-02T05:49:50.201Z,808.70
2023-04-02T05:50:50.199Z,808.67
2023-04-02T05:51:50.224Z,808.70
2023-04-02T05:52:50.207Z,808.70
2023-04-02T05:53:50.221Z,808.70
2023-04-02T05:54:50.218Z,808.72
2023-04-02T05:55:50.220Z,808.74
2023-04-02T05:56:50.265Z,808.77
2023-04-02T05:58:07.059Z,808.83
2023-04-02T05:58:50.290Z,808.86
2023-04-02T05:59:50.257Z,808.83
2023-04-02T06:00:50.237Z,808.82
2023-04-02T06:01:50.298Z,808.82
2023-04-02T06:02:50.418Z,808.85
2023-04-02T06:03:50.317Z,808.82
2023-04-02T06:04:50.253Z,808.83
2023-04-02T06:05:50.258Z,808.87
2023-04-02T06:06:50.260Z,808.83
2023-04-02T06:07:50.271Z,808.85
2023-04-02T06:08:50.267Z,808.87
2023-04-02T06:09:50.275Z,808.85
2023-04-02T06:10:50.275Z,808.88
2023-04-02T06:11:50.293Z,808.85
2023-04-02T06:12:50.281Z,808.85
2023-04-02T06:13:50.287Z,808.89
2023-04-02T06:14:50.294Z,808.90
2023-04-02T06:15:50.319Z,808.86
2023-04-02T06:16:50.358Z,808.87
2023-04-02T06:17:50.344Z,808.84
2023-04-02T06:18:50.305Z,808.90
2023-04-02T06:19:50.314Z,808.86
2023-04-02T06:20:50.316Z,808.90
2023-04-02T06:21:50.322Z,808.89
2023-04-02T06:22:50.322Z,808.89
2023-04-02T06:23:50.329Z,808.85
2023-04-02T06:24:50.329Z,808.88
2023-04-02T06:25:50.343Z,808.89
2023-04-02T06:26:50.344Z,808.90
2023-04-02T06:27:50.367Z,808.92
2023-04-02T06:28:50.345Z,808.94
2023-04-02T06:29:50.356Z,808.98
2023-04-02T06:30:50.434Z,808.97
2023-04-02T06:31:50.382Z,809.02
2023-04-02T06:32:50.455Z,809.01
2023-04-02T06:33:50.372Z,809.00
2023-04-02T06:34:50.374Z,809.06
2023-04-02T06:35:50.442Z,809.04
2023-04-02T06:36:50.380Z,809.05
2023-04-02T06:37:50.390Z,809.06
2023-04-02T06:38:50.391Z,809.04
2023-04-02T06:39:50.396Z,809.08
2023-04-02T06:40:50.431Z,809.12
2023-04-02T06:41:50.409Z,809.08
2023-04-02T06:42:50.407Z,809.07
2023-04-02T06:43:50.426Z,809.09
2023-04-02T06:44:50.416Z,809.09
2023-04-02T06:45:50.489Z,809.10
2023-04-02T06:46:52.418Z,809.08
2023-04-02T06:47:50.555Z,809.09
2023-04-02T06:48:50.454Z,809.12
2023-04-02T06:49:50.438Z,809.11
2023-04-02T06:50:50.446Z,809.13
2023-04-02T06:51:50.456Z,809.12
2023-04-02T06:52:50.451Z,809.14
2023-04-02T06:53:50.458Z,809.13
2023-04-02T06:54:50.530Z,809.19
2023-04-02T06:55:50.492Z,809.20
2023-04-02T06:56:50.506Z,809.19
2023-04-02T06:57:50.475Z,809.18
2023-04-02T06:58:50.474Z,809.21
2023-04-02T06:59:50.493Z,809.20
2023-04-02T07:00:50.487Z,809.22
2023-04-02T07:01:50.530Z,809.24
2023-04-02T07:02:50.590Z,809.29
2023-04-02T07:03:50.517Z,809.24
2023-04-02T07:04:50.570Z,809.26
2023-04-02T07:05:50.510Z,809.27
2023-04-02T07:06:50.506Z,809.29
2023-04-02T07:07:50.513Z,809.31
2023-04-02T07:08:50.520Z,809.33
2023-04-02T07:09:50.520Z,809.27
2023-04-02T07:10:50.523Z,809.32
2023-04-02T07:11:50.532Z,809.34
2023-04-02T07:12:50.545Z,809.34
2023-04-02T07:13:50.546Z,809.34
2023-04-02T07:14:50.539Z,809.39
2023-04-02T07:15:50.572Z,809.35
2023-04-02T07:16:50.548Z,809.35
2023-04-02T07:17:50.590Z,809.37
2023-04-02T07:18:50.559Z,809.36
2023-04-02T07:19:50.694Z,809.38
2023-04-02T07:20:52.038Z,809.35
2023-04-02T07:21:50.600Z,809.36
2023-04-02T07:22:50.576Z,809.38
2023-04-02T07:23:50.599Z,809.33
2023-04-02T07:24:50.584Z,809.38
2023-04-02T07:25:50.589Z,809.39
2023-04-02T07:26:50.591Z,809.40
2023-04-02T07:27:50.603Z,809.41
2023-04-02T07:28:50.599Z,809.37
2023-04-02T07:29:50.606Z,809.38
2023-04-02T07:30:50.628Z,809.37
2023-04-02T07:31:50.703Z,809.36
2023-04-02T07:32:50.657Z,809.38
2023-04-02T07:33:50.627Z,809.34
2023-04-02T07:34:50.625Z,809.39
2023-04-02T07:35:50.691Z,809.42
2023-04-02T07:36:50.639Z,809.44
2023-04-02T07:37:50.641Z,809.46
2023-04-02T07:38:50.647Z,809.47
2023-04-02T07:39:50.653Z,809.43
2023-04-02T07:40:50.654Z,809.45
2023-04-02T07:41:50.660Z,809.43
2023-04-02T07:42:50.663Z,809.41
2023-04-02T07:43:50.674Z,809.41
2023-04-02T07:44:50.671Z,809.39
2023-04-02T07:45:50.695Z,809.43
2023-04-02T07:46:50.719Z,809.46
2023-04-02T07:47:50.735Z,809.48
2023-04-02T07:48:50.691Z,809.49
2023-04-02T07:49:50.694Z,809.51
2023-04-02T07:50:50.700Z,809.51
2023-04-02T07:51:50.740Z,809.50
2023-04-02T07:52:50.710Z,809.52
2023-04-02T07:53:50.714Z,809.54
2023-04-02T07:54:50.716Z,809.54
2023-04-02T07:55:50.726Z,809.50
2023-04-02T07:56:50.831Z,809.53
2023-04-02T07:57:50.759Z,809.51
2023-04-02T07:58:50.736Z,809.55
2023-04-02T07:59:50.746Z,809.56
2023-04-02T08:00:50.759Z,809.55
2023-04-02T08:01:50.778Z,809.56
2023-04-02T08:02:50.871Z,809.55
2023-04-02T08:03:52.993Z,809.59
2023-04-02T08:04:50.769Z,809.62
2023-04-02T08:05:50.770Z,809.64
2023-04-02T08:06:50.791Z,809.68
2023-04-02T08:07:50.802Z,809.66
2023-04-02T08:08:50.790Z,809.64
2023-04-02T08:09:50.788Z,809.67
2023-04-02T08:10:50.797Z,809.67
2023-04-02T08:11:50.805Z,809.67
2023-04-02T08:12:50.797Z,809.70
2023-04-02T08:13:50.822Z,809.68
2023-04-02T08:14:50.815Z,809.69
2023-04-02T08:15:50.819Z,809.71
2023-04-02T08:16:50.846Z,809.74
2023-04-02T08:17:50.854Z,809.70
2023-04-02T08:18:50.829Z,809.76
2023-04-02T08:19:55.053Z,809.76
2023-04-02T08:20:50.836Z,809.77
2023-04-02T08:21:50.846Z,809.77
2023-04-02T08:22:50.851Z,809.79
2023-04-02T08:23:50.873Z,809.79
2023-04-02T08:24:50.863Z,809.79
2023-04-02T08:25:50.863Z,809.84
2023-04-02T08:26:50.865Z,809.84
2023-04-02T08:27:50.888Z,809.83
2023-04-02T08:28:50.876Z,809.83
2023-04-02T08:29:50.894Z,809.83
2023-04-02T08:30:50.938Z,809.86
2023-04-02T08:31:50.894Z,809.88
2023-04-02T08:32:50.952Z,809.85
2023-04-02T08:33:50.904Z,809.88
2023-04-02T08:34:50.907Z,809.91
2023-04-02T08:35:50.951Z,809.89
2023-04-02T08:36:50.918Z,809.87
2023-04-02T08:37:50.917Z,809.95
2023-04-02T08:38:50.926Z,809.94
2023-04-02T08:39:50.948Z,809.94
2023-04-02T08:40:50.933Z,809.95
2023-04-02T08:41:50.935Z,809.97
2023-04-02T08:42:50.947Z,809.92
2023-04-02T08:43:50.947Z,809.96
2023-04-02T08:44:50.967Z,809.99
2023-04-02T08:45:50.982Z,809.98
2023-04-02T08:46:50.969Z,809.98
2023-04-02T08:47:51.029Z,809.94
2023-04-02T08:48:50.983Z,809.96
2023-04-02T08:49:50.974Z,810.03
2023-04-02T08:50:50.990Z,809.99
2023-04-02T08:51:50.982Z,810.01
2023-04-02T08:52:50.989Z,810.04
2023-04-02T08:53:50.994Z,809.99
2023-04-02T08:54:51.014Z,810.02
2023-04-02T08:55:51.023Z,810.03
2023-04-02T08:56:51.056Z,810.02
2023-04-02T08:57:51.017Z,810.04
2023-04-02T08:58:51.023Z,810.06
2023-04-02T08:59:51.026Z,810.09
2023-04-02T09:00:51.032Z,810.11
2023-04-02T09:01:51.118Z,810.13
2023-04-02T09:02:51.155Z,810.12
2023-04-02T09:03:51.052Z,810.13
2023-04-02T09:04:51.104Z,810.11
2023-04-02T09:05:51.068Z,810.09
2023-04-02T09:06:51.063Z,810.14
2023-04-02T09:07:51.060Z,810.12
2023-04-02T09:08:51.077Z,810.12
2023-04-02T09:09:51.103Z,810.11
2023-04-02T09:10:51.080Z,810.14
2023-04-02T09:11:51.104Z,810.13
2023-04-02T09:12:51.103Z,810.15
2023-04-02T09:13:51.092Z,810.16
2023-04-02T09:14:51.105Z,810.14
2023-04-02T09:15:51.129Z,810.20
2023-04-02T09:16:51.116Z,810.19
2023-04-02T09:17:54.453Z,810.22
2023-04-02T09:18:51.129Z,810.20
2023-04-02T09:19:51.127Z,810.21
2023-04-02T09:20:51.135Z,810.21
2023-04-02T09:21:51.138Z,810.26
2023-04-02T09:22:51.148Z,810.26
2023-04-02T09:23:51.154Z,810.28
2023-04-02T09:24:51.167Z,810.31
2023-04-02T09:26:03.020Z,810.32
2023-04-02T09:26:51.175Z,810.37
2023-04-02T09:27:51.195Z,810.35
2023-04-02T09:28:51.184Z,810.35
2023-04-02T09:29:51.182Z,810.40
2023-04-02T09:30:51.196Z,810.39
2023-04-02T09:31:51.217Z,810.40
2023-04-02T09:32:51.360Z,810.39
2023-04-02T09:33:51.207Z,810.39
2023-04-02T09:34:51.233Z,810.39
2023-04-02T09:35:51.236Z,810.40
2023-04-02T09:36:51.242Z,810.37
2023-04-02T09:37:51.236Z,810.42
2023-04-02T09:38:51.247Z,810.43
2023-04-02T09:39:51.255Z,810.40
2023-04-02T09:40:51.252Z,810.40
2023-04-02T09:42:04.571Z,810.41
2023-04-02T09:42:51.269Z,810.43
2023-04-02T09:43:51.290Z,810.44
2023-04-02T09:44:51.277Z,810.45
2023-04-02T09:45:51.282Z,810.41
2023-04-02T09:46:51.336Z,810.44
2023-04-02T09:47:51.360Z,810.48
2023-04-02T09:48:51.304Z,810.53
2023-04-02T09:49:51.310Z,810.52
2023-04-02T09:50:51.317Z,810.51
2023-04-02T09:51:51.321Z,810.51
2023-04-02T09:52:51.379Z,810.51
2023-04-02T09:53:51.340Z,810.53
2023-04-02T09:54:51.343Z,810.58
2023-04-02T09:55:51.345Z,810.60
2023-04-02T09:56:51.397Z,810.62
2023-04-02T09:57:51.357Z,810.64
2023-04-02T09:58:51.368Z,810.62
2023-04-02T09:59:51.396Z,810.65
2023-04-02T10:00:51.444Z,810.63
2023-04-02T10:01:51.385Z,810.60
2023-04-02T10:02:51.452Z,810.60
2023-04-02T10:03:51.437Z,810.66
2023-04-02T10:04:51.408Z,810.64
2023-04-02T10:05:51.416Z,810.62
2023-04-02T10:06:51.422Z,810.60
2023-04-02T10:07:51.429Z,810.65
2023-04-02T10:08:51.443Z,810.61
2023-04-02T10:09:51.444Z,810.62
2023-04-02T10:10:51.477Z,810.64
2023-04-02T10:11:51.462Z,810.63
2023-04-02T10:12:51.473Z,810.63
2023-04-02T10:13:51.477Z,810.62
2023-04-02T10:14:51.480Z,810.66
2023-04-02T10:15:51.517Z,810.63
2023-04-02T10:16:51.547Z,810.66
2023-04-02T10:17:51.586Z,810.66
2023-04-02T10:18:51.523Z,810.62
2023-04-02T10:19:51.517Z,810.67
2023-04-02T10:20:51.746Z,810.66
2023-04-02T10:21:51.528Z,810.66
2023-04-02T10:22:51.542Z,810.62
2023-04-02T10:23:51.558Z,810.66
2023-04-02T10:24:51.568Z,810.60
2023-04-02T10:25:51.562Z,810.67
2023-04-02T10:26:51.565Z,810.65
2023-04-02T10:27:51.577Z,810.64
2023-04-02T10:28:51.585Z,810.63
2023-04-02T10:29:51.590Z,810.65
2023-04-02T10:30:51.632Z,810.64
2023-04-02T10:31:51.621Z,810.61
2023-04-02T10:32:51.658Z,810.64
2023-04-02T10:33:51.628Z,810.61
2023-04-02T10:34:51.637Z,810.69
2023-04-02T10:35:51.645Z,810.67
2023-04-02T10:36:51.645Z,810.70
2023-04-02T10:37:51.662Z,810.67
2023-04-02T10:38:51.655Z,810.67
2023-04-02T10:39:51.660Z,810.63
2023-04-02T10:40:51.667Z,810.66
2023-04-02T10:41:51.676Z,810.65
2023-04-02T10:42:51.683Z,810.68
2023-04-02T10:43:51.688Z,810.63
2023-04-02T10:44:51.700Z,810.63
2023-04-02T10:45:51.713Z,810.66
2023-04-02T10:46:51.708Z,810.67
2023-04-02T10:47:51.845Z,810.66
2023-04-02T10:48:51.724Z,810.66
2023-04-02T10:49:51.789Z,810.69
2023-04-02T10:50:51.757Z,810.66
2023-04-02T10:51:51.739Z,810.68
2023-04-02T10:52:51.751Z,810.71
2023-04-02T10:53:51.752Z,810.72
2023-04-02T10:54:51.771Z,810.68
2023-04-02T10:55:51.767Z,810.66
2023-04-02T10:56:51.776Z,810.66
2023-04-02T10:57:51.779Z,810.67
2023-04-02T10:58:51.794Z,810.69
2023-04-02T10:59:51.794Z,810.70
2023-04-02T11:00:51.804Z,810.70
2023-04-02T11:01:51.850Z,810.70
2023-04-02T11:02:51.884Z,810.67
2023-04-02T11:03:51.935Z,810.73
2023-04-02T11:04:51.829Z,810.72
2023-04-02T11:05:51.834Z,810.72
2023-04-02T11:06:58.084Z,810.74
2023-04-02T11:07:51.848Z,810.73
2023-04-02T11:08:51.862Z,810.71
2023-04-02T11:09:51.942Z,810.75
2023-04-02T11:10:51.874Z,810.75
2023-04-02T11:11:51.890Z,810.75
2023-04-02T11:12:51.888Z,810.76
2023-04-02T11:13:51.897Z,810.75
2023-04-02T11:14:51.904Z,810.81
2023-04-02T11:15:51.936Z,810.74
2023-04-02T11:16:51.926Z,810.79
2023-04-02T11:17:51.947Z,810.73
2023-04-02T11:18:51.930Z,810.78
2023-04-02T11:19:51.958Z,810.80
2023-04-02T11:20:51.950Z,810.80
2023-04-02T11:21:58.591Z,810.81
2023-04-02T11:22:51.966Z,810.84
2023-04-02T11:23:51.969Z,810.85
2023-04-02T11:24:51.974Z,810.81
2023-04-02T11:25:51.982Z,810.77
2023-04-02T11:26:51.990Z,810.86
2023-04-02T11:27:51.993Z,810.78
2023-04-02T11:28:52.008Z,810.84
2023-04-02T11:29:52.010Z,810.83
2023-04-02T11:30:52.019Z,810.80
2023-04-02T11:31:52.096Z,810.83
2023-04-02T11:32:52.086Z,810.85
2023-04-02T11:33:52.049Z,810.84
2023-04-02T11:35:05.046Z,810.86
2023-04-02T11:35:52.132Z,810.87
2023-04-02T11:36:52.069Z,810.85
2023-04-02T11:37:52.068Z,810.83
2023-04-02T11:38:52.575Z,810.86
2023-04-02T11:39:52.090Z,810.87
2023-04-02T11:40:52.105Z,810.86
2023-04-02T11:41:52.108Z,810.91
2023-04-02T11:42:52.108Z,810.89
2023-04-02T11:43:52.132Z,810.93
2023-04-02T11:44:52.128Z,810.91
2023-04-02T11:45:53.200Z,810.97
2023-04-02T11:46:52.219Z,810.96
2023-04-02T11:47:52.203Z,810.96
2023-04-02T11:48:52.160Z,810.95
2023-04-02T11:49:52.157Z,810.95
2023-04-02T11:50:52.174Z,810.93
2023-04-02T11:51:56.553Z,810.97
2023-04-02T11:52:52.185Z,810.95
2023-04-02T11:53:52.189Z,811.01
2023-04-02T11:54:52.199Z,810.99
2023-04-02T11:55:52.204Z,811.02
2023-04-02T11:56:52.233Z,811.06
2023-04-02T11:57:52.221Z,811.05
2023-04-02T11:58:52.225Z,811.03
2023-04-02T11:59:52.231Z,811.04
2023-04-02T12:00:52.261Z,811.05
2023-04-02T12:01:52.272Z,811.07
2023-04-02T12:02:52.299Z,811.06
2023-04-02T12:03:52.253Z,811.09
2023-04-02T12:04:52.303Z,811.07
2023-04-02T12:05:52.266Z,811.07
2023-04-02T12:06:52.287Z,811.08
2023-04-02T12:07:52.621Z,811.10
2023-04-02T12:08:57.977Z,811.13
2023-04-02T12:09:52.308Z,811.12
2023-04-02T12:10:52.310Z,811.09
2023-04-02T12:11:52.432Z,811.12
2023-04-02T12:12:52.315Z,811.10
2023-04-02T12:13:52.345Z,811.14
2023-04-02T12:14:52.346Z,811.08
2023-04-02T12:15:52.340Z,811.10
2023-04-02T12:16:52.385Z,811.13
2023-04-02T12:17:52.367Z,811.19
2023-04-02T12:18:52.359Z,811.16
2023-04-02T12:19:52.407Z,811.16
2023-04-02T12:20:52.382Z,811.15
2023-04-02T12:21:52.383Z,811.18
2023-04-02T12:22:52.395Z,811.17
2023-04-02T12:23:52.416Z,811.15
2023-04-02T12:24:52.408Z,811.18
2023-04-02T12:25:52.406Z,811.18
2023-04-02T12:26:52.418Z,811.21
2023-04-02T12:27:52.421Z,811.18
2023-04-02T12:28:52.436Z,811.20